VTSE/CJM METAR and TAF weather

Enter ICAO airport designator
Station Type Date Time Source
VTSE METAR 2019/08/24 12:00 UTC NOAA

VTSE 241200Z 31003KT 250V360 9999 SCT020 SCT100 26/23 Q1008 NOSIG


Station Type Date Time Source
VTSE Decoded METAR 2019/08/24 12:00 UTC NOAA

Station name not available
Aug 24, 2019 - 08:00 AM EDT / 2019.08.24 1200 UTC
Wind: from the NW (310 degrees) at 3 MPH (3 KT) (direction variable):0
Visibility: greater than 7 mile(s):0
Sky conditions: partly cloudy
Temperature: 78 F (26 C)
Dew Point: 73 F (23 C)
Relative Humidity: 83%
Pressure (altimeter): 29.77 in. Hg (1008 hPa)
ob: VTSE 241200Z 31003KT 250V360 9999 SCT020 SCT100 26/23 Q1008 NOSIG
cycle: 12

Station Type Date Time Source
VTSE TAF 2019/08/24 18:00 UTC NOAA

TAF VTSE 241700Z 2418/2518 26005KT 8000 SCT020 SCT100
TEMPO 2504/2510 27010G20KT 5000 TSRA FEW016CB SCT018 BKN100

Example: see airport list